GLO1714 SBBR-SBCY
Flight info
| Callsign | GLO1714 |
|---|---|
| Flight time | N/A |
| Altitude | 36000 |
| Route | SIREM DCT LODOV DCT MABMA DCT SINIP |
| Aircraft | B737/M-SDFGIKLORWXY/LB1 |
Departure
| Time | N/A |
|---|---|
| Airport | Presidente Juscelino Kubitschek International Airport (SBBR) |
Arrival
| Time | 2026-04-25 02:44 |
|---|---|
| Airport | Várzea Grande–Marechal Rondon International Airport (SBCY) |
| Time | Latitude | Longitude | Altitude | Speed | Heading |
|---|---|---|---|---|---|
| 2026-04-25 02:44 | -15.65010 | -56.12003 | 596 ft | 0 kts | 242° |
| 2026-04-25 02:50 | -15.65000 | -56.11985 | 596 ft | 4 kts | 226° |
| 2026-04-25 02:51 | -15.64979 | -56.11972 | 595 ft | 4 kts | 179° |
| 2026-04-25 02:51 | -15.64965 | -56.11974 | 595 ft | 1 kts | 153° |
| 2026-04-25 02:55 | -15.64967 | -56.11973 | 595 ft | 1 kts | 153° |
| 2026-04-25 02:55 | -15.64989 | -56.11962 | 595 ft | 6 kts | 153° |
| 2026-04-25 02:55 | -15.65037 | -56.11937 | 596 ft | 10 kts | 153° |
| 2026-04-25 02:55 | -15.65086 | -56.11885 | 596 ft | 11 kts | 87° |
| 2026-04-25 02:56 | -15.65044 | -56.11821 | 597 ft | 11 kts | 22° |
| 2026-04-25 02:56 | -15.64973 | -56.11840 | 596 ft | 11 kts | 332° |
| 2026-04-25 02:56 | -15.64906 | -56.11875 | 595 ft | 11 kts | 333° |
| 2026-04-25 02:56 | -15.64842 | -56.11909 | 595 ft | 10 kts | 333° |
| 2026-04-25 02:57 | -15.64779 | -56.11943 | 595 ft | 11 kts | 333° |
| 2026-04-25 02:57 | -15.64710 | -56.11979 | 595 ft | 12 kts | 333° |
| 2026-04-25 02:57 | -15.64629 | -56.12022 | 594 ft | 14 kts | 332° |
| 2026-04-25 02:57 | -15.64535 | -56.12072 | 594 ft | 16 kts | 332° |
| 2026-04-25 02:58 | -15.64445 | -56.12130 | 595 ft | 11 kts | 309° |
| 2026-04-25 02:58 | -15.64409 | -56.12176 | 595 ft | 9 kts | 357° |
| 2026-04-25 02:58 | -15.64408 | -56.12137 | 595 ft | 8 kts | 154° |
| 2026-04-25 02:58 | -15.64517 | -56.12082 | 595 ft | 45 kts | 152° |
| 2026-04-25 02:59 | -15.65024 | -56.11813 | 596 ft | 117 kts | 153° |
| 2026-04-25 02:59 | -15.65925 | -56.11331 | 600 ft | 173 kts | 153° |
| 2026-04-25 02:59 | -15.67061 | -56.10733 | 1116 ft | 184 kts | 154° |
| 2026-04-25 02:59 | -15.68199 | -56.10166 | 1978 ft | 184 kts | 161° |
| 2026-04-25 03:00 | -15.69429 | -56.10181 | 2771 ft | 186 kts | 207° |
| 2026-04-25 03:00 | -15.70395 | -56.11188 | 3109 ft | 214 kts | 239° |
| 2026-04-25 03:00 | -15.71280 | -56.12547 | 3507 ft | 236 kts | 232° |
| 2026-04-25 03:00 | -15.72348 | -56.13886 | 4315 ft | 243 kts | 229° |
| 2026-04-25 03:01 | -15.73495 | -56.15185 | 5305 ft | 244 kts | 227° |
| 2026-04-25 03:01 | -15.74666 | -56.16451 | 6220 ft | 248 kts | 226° |
| 2026-04-25 03:01 | -15.75748 | -56.17867 | 6992 ft | 258 kts | 240° |
| 2026-04-25 03:01 | -15.76590 | -56.19584 | 7591 ft | 274 kts | 244° |
| 2026-04-25 03:02 | -15.77463 | -56.21373 | 8421 ft | 279 kts | 243° |
| 2026-04-25 03:02 | -15.78359 | -56.23180 | 9316 ft | 282 kts | 245° |
| 2026-04-25 03:02 | -15.78821 | -56.25165 | 10131 ft | 287 kts | 272° |
| 2026-04-25 03:02 | -15.78348 | -56.27222 | 10591 ft | 307 kts | 297° |
| 2026-04-25 03:03 | -15.77132 | -56.29103 | 10968 ft | 326 kts | 306° |
| 2026-04-25 03:03 | -15.75755 | -56.31005 | 11691 ft | 332 kts | 307° |
| 2026-04-25 03:03 | -15.74359 | -56.32940 | 12527 ft | 336 kts | 306° |
| 2026-04-25 03:03 | -15.72961 | -56.34899 | 13345 ft | 339 kts | 306° |
| 2026-04-25 03:04 | -15.71549 | -56.36896 | 14146 ft | 344 kts | 306° |
| 2026-04-25 03:04 | -15.70131 | -56.38909 | 14952 ft | 348 kts | 306° |
| 2026-04-25 03:04 | -15.68692 | -56.40955 | 15763 ft | 352 kts | 306° |
| 2026-04-25 03:05 | -15.65791 | -56.45080 | 17315 ft | 360 kts | 306° |
| 2026-04-25 03:05 | -15.64305 | -56.47192 | 18064 ft | 364 kts | 306° |
| 2026-04-25 03:05 | -15.62801 | -56.49329 | 18799 ft | 368 kts | 306° |
| 2026-04-25 03:05 | -15.61276 | -56.51494 | 19520 ft | 373 kts | 306° |
| 2026-04-25 03:06 | -15.59736 | -56.53680 | 20209 ft | 377 kts | 306° |
| 2026-04-25 03:06 | -15.58181 | -56.55887 | 20886 ft | 381 kts | 306° |
| 2026-04-25 03:06 | -15.56605 | -56.58122 | 21550 ft | 385 kts | 306° |
| 2026-04-25 03:06 | -15.55013 | -56.60380 | 22191 ft | 389 kts | 306° |